»·PEaware :: N815M C47-KOSH

N815M :: C47-KOSH

FLIGHT INFORMATION

Flight Status: Arrived
Operator: Privately registered:
United States
More flights under this callsign
Pilot: Robert C. (30425)
Aircraft: BEECH AIRCRAFT DEBONAIR BONANZA
(BE33)
More flights by this aircraft type
Origin: C47 Portage Mun
United States
Destination: KOSH Wittman Regl
United States
More flights between these airports :: More routes between these airports
Route:
File this flight plan on PilotEdge
Remarks:
Altitude:
(Current/Filed)
2,500ft
Speed:
(Current/Filed)
125kts
Departed: 14-Jul-21 04:49 PM
Arrived: 14-Jul-21 05:57 PM
Distance/Time
Traveled:
47nm/1:08
Distance/Time
To Go:
Arrived

Flight Plot

Page will automatically refresh every two minutes.

Flight plan parsing failed; only flown route is shown


Map Options




Map Legend


Flown Route
Filed Route
Departure Airport
Arrival Airport
Navaid (VOR, NDB)
Fix

Horizontal Profiles

Position Reports

Time Latitude Longitude Heading Altitude Ground
Speed
14-Jul-21 16:47 43.820907 -88.646696 228 3504ft 160kts
14-Jul-21 16:48 43.790814 -88.693929 228 3500ft 165kts
14-Jul-21 16:49 43.760481 -88.741582 228 3499ft 165kts
14-Jul-21 16:50 43.733228 -88.792620 238 3495ft 164kts
14-Jul-21 16:51 43.711099 -88.847438 248 3498ft 163kts
14-Jul-21 16:52 43.699988 -88.907444 268 3492ft 163kts
14-Jul-21 16:53 43.699733 -88.970076 269 3500ft 163kts
14-Jul-21 16:54 43.707359 -89.029381 310 3521ft 161kts
14-Jul-21 16:55 43.737298 -89.063585 355 2690ft 131kts
14-Jul-21 16:56 43.767719 -89.048238 35 1859ft 110kts
14-Jul-21 16:57 43.780606 -89.016622 64 1803ft 94kts
14-Jul-21 16:58 43.792447 -88.981853 65 1798ft 99kts
14-Jul-21 16:59 43.802652 -88.952381 63 1801ft 82kts
14-Jul-21 17:00 43.813677 -88.922831 62 1803ft 93kts
14-Jul-21 17:01 43.825763 -88.890348 62 1799ft 94kts
14-Jul-21 17:02 43.838002 -88.858330 61 1799ft 93kts
14-Jul-21 17:03 43.852304 -88.828663 52 1799ft 92kts
14-Jul-21 17:04 43.867741 -88.800255 54 1799ft 92kts
14-Jul-21 17:05 43.883240 -88.771908 50 1799ft 92kts
14-Jul-21 17:06 43.900840 -88.746148 42 1800ft 92kts
14-Jul-21 17:07 43.919750 -88.722138 42 1799ft 92kts
14-Jul-21 17:08 43.939288 -88.699047 41 1799ft 92kts
14-Jul-21 17:09 43.958649 -88.675936 39 1800ft 92kts
14-Jul-21 17:10 43.972962 -88.646475 58 1799ft 92kts
14-Jul-21 17:11 43.986022 -88.615830 58 1799ft 92kts
14-Jul-21 17:12 43.998629 -88.584821 74 1798ft 92kts
14-Jul-21 17:13 43.999156 -88.551686 146 1183ft 83kts
14-Jul-21 17:23 43.555723 -89.482005 274 822ft 12kts
14-Jul-21 17:24 43.566257 -89.483324 1 933ft 94kts
14-Jul-21 17:25 43.594351 -89.470958 30 1862ft 122kts
14-Jul-21 17:26 43.622496 -89.433836 48 2103ft 162kts
14-Jul-21 17:27 43.653728 -89.385067 48 2035ft 170kts
14-Jul-21 17:28 43.675219 -89.326817 68 1890ft 164kts
14-Jul-21 17:29 43.698211 -89.277514 39 1802ft 148kts
14-Jul-21 17:30 43.719513 -89.236098 68 1788ft 119kts
14-Jul-21 17:31 43.729644 -89.200960 68 1799ft 90kts
14-Jul-21 17:32 43.726327 -89.172413 157 1802ft 91kts
14-Jul-21 17:33 43.709982 -89.181530 288 1800ft 91kts
14-Jul-21 17:34 43.729040 -89.177189 52 1801ft 92kts
14-Jul-21 17:35 43.744426 -89.148236 63 1799ft 94kts
14-Jul-21 17:36 43.752088 -89.113523 73 1800ft 95kts
14-Jul-21 17:37 43.760172 -89.078647 70 1800ft 95kts
14-Jul-21 17:38 43.769990 -89.044568 63 1800ft 95kts
14-Jul-21 17:39 43.781567 -89.011532 63 1799ft 95kts
14-Jul-21 17:40 43.793645 -88.979121 61 1799ft 94kts
14-Jul-21 17:41 43.805954 -88.946997 61 1799ft 94kts
14-Jul-21 17:42 43.817813 -88.914501 63 1799ft 94kts
14-Jul-21 17:43 43.829604 -88.882030 62 1799ft 94kts
14-Jul-21 17:44 43.841541 -88.849632 62 1799ft 94kts
14-Jul-21 17:45 43.856622 -88.820179 48 1800ft 94kts
14-Jul-21 17:46 43.872663 -88.791400 52 1799ft 94kts
14-Jul-21 17:47 43.888840 -88.763250 49 1799ft 92kts
14-Jul-21 17:48 43.906658 -88.738202 41 1799ft 91kts
14-Jul-21 17:49 43.926015 -88.714385 40 1803ft 98kts
14-Jul-21 17:50 43.944494 -88.692499 40 1800ft 82kts
14-Jul-21 17:51 43.954312 -88.665199 84 1800ft 84kts
14-Jul-21 17:52 43.954759 -88.632504 91 1799ft 85kts
14-Jul-21 17:53 43.954077 -88.599589 91 1799ft 85kts
14-Jul-21 17:54 43.953428 -88.567488 90 1698ft 87kts
14-Jul-21 17:55 43.970247 -88.556576 359 864ft 68kts
14-Jul-21 17:56 43.979409 -88.557274 359 812ft 8kts
14-Jul-21 17:57 43.984275 -88.557181 4 812ft 18kts
14-Jul-21 17:58 43.982854 -88.558001 178 812ft 26kts
14-Jul-21 17:59 43.977819 -88.558559 213 812ft 4kts
14-Jul-21 18:00 43.977776 -88.558578 181 812ft 0kts
14-Jul-21 18:01 43.977776 -88.558578 181 812ft 0kts
14-Jul-21 18:02 43.977776 -88.558578 181 812ft 0kts

Navigation Log

Ident Type
Flight plan parsing failed, navigation log unavailable